This is the latest recevied weather packets stored in our database for station/object WK7G. If no packets are shown the sender has not sent any weather packets the latest 1 day(s).
| Time | Temp. | Humidity | Pressure | Rain* | Wind** | Luminosity | Snow |
|---|---|---|---|---|---|---|---|
| 1836274838 | 12.22° C | 53% | 1013.6 hPa | 0 mm | 0.89 m/s, 107° | 0 W/m² | - |
| 1836274535 | 11.11° C | 55% | 1013.7 hPa | 0 mm | 1.34 m/s, 116° | 0 W/m² | - |
| 1836274389 | 12.78° C | 52% | 1013.4 hPa | 0 mm | 0.89 m/s, 126° | 0 W/m² | - |
| 1836274234 | 11.11° C | 58% | 1013.7 hPa | 0 mm | 1.34 m/s, 129° | 0 W/m² | - |
| 1836273933 | 11.67° C | 58% | 1013.9 hPa | 0 mm | 0.89 m/s, 138° | 0 W/m² | - |
| 1778048597 | 1.67° C | 50% | 1009.3 hPa | 0 mm | 3.13 m/s, 296° | 0 W/m² | - |
| 1778048293 | 1.67° C | 50% | 1009.1 hPa | 0 mm | 3.13 m/s, 6° | 0 W/m² | - |
| 1778047990 | 1.67° C | 50% | 1009.2 hPa | 0 mm | 4.47 m/s, 309° | 0 W/m² | - |
| 1778047688 | 1.67° C | 50% | 1009.1 hPa | 0 mm | 4.92 m/s, 302° | 0 W/m² | - |
| 1778047386 | 1.67° C | 50% | 1009.3 hPa | 0 mm | 4.02 m/s, 339° | 0 W/m² | - |
| 1778047082 | 1.67° C | 50% | 1009.4 hPa | 0 mm | 3.13 m/s, 276° | 0 W/m² | - |
| 1778046780 | 2.22° C | 49% | 1008.9 hPa | 0 mm | 3.13 m/s, 340° | 0 W/m² | - |
| 1778046476 | 2.22° C | 49% | 1009.1 hPa | 0 mm | 4.47 m/s, 309° | 0 W/m² | - |
| 1778046173 | 2.22° C | 48% | 1008.8 hPa | 0 mm | 4.02 m/s, 301° | 0 W/m² | - |
| 1778045870 | 2.78° C | 48% | 1008.8 hPa | 0 mm | 3.58 m/s, 353° | 0 W/m² | - |
| 1778045569 | 2.78° C | 47% | 1008.7 hPa | 0 mm | 4.92 m/s, 315° | 0 W/m² | - |
| 1778045266 | 2.22° C | 49% | 1008.8 hPa | 0 mm | 3.13 m/s, 341° | 0 W/m² | - |
| 1778044964 | 2.22° C | 50% | 1008.9 hPa | 0 mm | 2.24 m/s, 314° | 0 W/m² | - |
| 1778044661 | 2.22° C | 50% | 1008.5 hPa | 0 mm | 0.89 m/s, 250° | 0 W/m² | - |
| 1778044357 | 2.78° C | 49% | 1008.6 hPa | 0 mm | 2.68 m/s, 336° | 0 W/m² | - |
| 1778044056 | 2.78° C | 49% | 1008.3 hPa | 0 mm | 2.68 m/s, 224° | 0 W/m² | - |
| 1778043753 | 2.78° C | 48% | 1008.3 hPa | 0 mm | 2.68 m/s, 295° | 0 W/m² | - |
| 1778043449 | 3.33° C | 47% | 1008.5 hPa | 0 mm | 2.68 m/s, 326° | 0 W/m² | - |
| 1778043146 | 3.89° C | 45% | 1008.2 hPa | 0 mm | 3.13 m/s, 284° | 0 W/m² | - |
| 1778042843 | 3.89° C | 44% | 1008.1 hPa | 0 mm | 2.24 m/s, 317° | 0 W/m² | - |
* Rain latest hour (hover to see other rain measurements)
** Current wind speed in m/s (hover to see current wind gust speed)